sensor_id;sensor_type;location;lat;lon;timestamp;P1;durP1;ratioP1;P2;durP2;ratioP2
35550;SDS011;21655;46.056;13.616;2023-06-05T00:00:50;12.02;;;6.00;;
35550;SDS011;21655;46.056;13.616;2023-06-05T00:03:15;12.93;;;5.65;;
35550;SDS011;21655;46.056;13.616;2023-06-05T00:05:43;11.23;;;6.07;;
35550;SDS011;21655;46.056;13.616;2023-06-05T00:08:08;8.82;;;6.15;;
35550;SDS011;21655;46.056;13.616;2023-06-05T00:10:34;12.27;;;6.13;;
35550;SDS011;21655;46.056;13.616;2023-06-05T00:12:59;14.15;;;6.30;;
35550;SDS011;21655;46.056;13.616;2023-06-05T00:15:25;12.45;;;6.13;;
35550;SDS011;21655;46.056;13.616;2023-06-05T00:17:50;9.05;;;6.60;;
35550;SDS011;21655;46.056;13.616;2023-06-05T00:20:16;10.73;;;6.20;;
35550;SDS011;21655;46.056;13.616;2023-06-05T00:22:42;9.77;;;6.10;;
35550;SDS011;21655;46.056;13.616;2023-06-05T00:25:09;9.23;;;5.90;;
35550;SDS011;21655;46.056;13.616;2023-06-05T00:27:35;10.10;;;5.97;;
35550;SDS011;21655;46.056;13.616;2023-06-05T00:30:00;9.68;;;6.13;;
35550;SDS011;21655;46.056;13.616;2023-06-05T00:32:26;8.77;;;5.53;;
35550;SDS011;21655;46.056;13.616;2023-06-05T00:34:51;10.32;;;5.18;;
35550;SDS011;21655;46.056;13.616;2023-06-05T00:37:17;11.32;;;4.70;;
35550;SDS011;21655;46.056;13.616;2023-06-05T00:39:43;9.23;;;4.95;;
35550;SDS011;21655;46.056;13.616;2023-06-05T00:42:08;9.80;;;4.38;;
35550;SDS011;21655;46.056;13.616;2023-06-05T00:44:34;9.05;;;4.97;;
35550;SDS011;21655;46.056;13.616;2023-06-05T00:47:00;7.50;;;4.75;;
35550;SDS011;21655;46.056;13.616;2023-06-05T00:49:26;7.65;;;4.40;;
35550;SDS011;21655;46.056;13.616;2023-06-05T00:51:52;7.45;;;4.47;;
35550;SDS011;21655;46.056;13.616;2023-06-05T00:54:18;13.88;;;4.65;;
35550;SDS011;21655;46.056;13.616;2023-06-05T00:56:45;8.30;;;4.70;;
35550;SDS011;21655;46.056;13.616;2023-06-05T00:59:11;10.73;;;4.88;;
35550;SDS011;21655;46.056;13.616;2023-06-05T01:01:39;8.25;;;4.80;;
35550;SDS011;21655;46.056;13.616;2023-06-05T01:04:05;10.30;;;5.18;;
35550;SDS011;21655;46.056;13.616;2023-06-05T01:06:31;10.15;;;4.53;;
35550;SDS011;21655;46.056;13.616;2023-06-05T01:08:59;7.28;;;4.75;;
35550;SDS011;21655;46.056;13.616;2023-06-05T01:14:04;10.07;;;5.13;;
35550;SDS011;21655;46.056;13.616;2023-06-05T01:16:37;11.98;;;4.97;;
35550;SDS011;21655;46.056;13.616;2023-06-05T01:19:03;7.57;;;4.75;;
35550;SDS011;21655;46.056;13.616;2023-06-05T01:21:30;10.98;;;5.10;;
35550;SDS011;21655;46.056;13.616;2023-06-05T01:23:56;23.85;;;5.30;;
35550;SDS011;21655;46.056;13.616;2023-06-05T01:26:24;11.93;;;4.97;;
35550;SDS011;21655;46.056;13.616;2023-06-05T01:28:58;9.75;;;4.72;;
35550;SDS011;21655;46.056;13.616;2023-06-05T01:31:26;8.70;;;5.05;;
35550;SDS011;21655;46.056;13.616;2023-06-05T01:33:57;13.88;;;5.07;;
35550;SDS011;21655;46.056;13.616;2023-06-05T01:36:27;8.38;;;4.70;;
35550;SDS011;21655;46.056;13.616;2023-06-05T01:38:54;9.68;;;5.20;;
35550;SDS011;21655;46.056;13.616;2023-06-05T01:41:21;13.05;;;5.28;;
35550;SDS011;21655;46.056;13.616;2023-06-05T01:43:48;7.85;;;5.10;;
35550;SDS011;21655;46.056;13.616;2023-06-05T01:46:17;10.13;;;5.30;;
35550;SDS011;21655;46.056;13.616;2023-06-05T01:48:44;10.65;;;4.65;;
35550;SDS011;21655;46.056;13.616;2023-06-05T01:51:10;9.02;;;5.00;;
35550;SDS011;21655;46.056;13.616;2023-06-05T01:53:35;6.30;;;5.13;;
35550;SDS011;21655;46.056;13.616;2023-06-05T01:56:01;9.32;;;5.07;;
35550;SDS011;21655;46.056;13.616;2023-06-05T01:58:28;9.05;;;5.10;;
35550;SDS011;21655;46.056;13.616;2023-06-05T02:00:53;6.20;;;4.90;;
35550;SDS011;21655;46.056;13.616;2023-06-05T02:03:21;11.77;;;4.90;;
35550;SDS011;21655;46.056;13.616;2023-06-05T02:05:48;8.25;;;5.05;;
35550;SDS011;21655;46.056;13.616;2023-06-05T02:08:13;12.75;;;4.82;;
35550;SDS011;21655;46.056;13.616;2023-06-05T02:10:44;10.60;;;5.28;;
35550;SDS011;21655;46.056;13.616;2023-06-05T02:13:13;10.07;;;4.93;;
35550;SDS011;21655;46.056;13.616;2023-06-05T02:15:44;7.57;;;4.72;;
35550;SDS011;21655;46.056;13.616;2023-06-05T02:18:10;11.98;;;5.00;;
35550;SDS011;21655;46.056;13.616;2023-06-05T02:20:35;12.40;;;5.03;;
35550;SDS011;21655;46.056;13.616;2023-06-05T02:23:01;12.88;;;5.40;;
35550;SDS011;21655;46.056;13.616;2023-06-05T02:25:27;10.13;;;5.30;;
35550;SDS011;21655;46.056;13.616;2023-06-05T02:27:53;11.30;;;5.18;;
35550;SDS011;21655;46.056;13.616;2023-06-05T02:30:19;9.65;;;5.95;;
35550;SDS011;21655;46.056;13.616;2023-06-05T02:32:45;10.35;;;5.05;;
35550;SDS011;21655;46.056;13.616;2023-06-05T02:35:12;10.50;;;5.68;;
35550;SDS011;21655;46.056;13.616;2023-06-05T02:37:39;13.27;;;6.00;;
35550;SDS011;21655;46.056;13.616;2023-06-05T02:40:12;9.85;;;5.68;;
35550;SDS011;21655;46.056;13.616;2023-06-05T02:42:39;12.32;;;5.57;;
35550;SDS011;21655;46.056;13.616;2023-06-05T02:45:05;10.43;;;5.45;;
35550;SDS011;21655;46.056;13.616;2023-06-05T02:47:32;11.55;;;6.45;;
35550;SDS011;21655;46.056;13.616;2023-06-05T02:49:58;10.77;;;5.40;;
35550;SDS011;21655;46.056;13.616;2023-06-05T02:52:24;11.52;;;5.70;;
35550;SDS011;21655;46.056;13.616;2023-06-05T02:54:50;13.05;;;5.70;;
35550;SDS011;21655;46.056;13.616;2023-06-05T02:57:16;9.45;;;5.95;;
35550;SDS011;21655;46.056;13.616;2023-06-05T02:59:42;10.35;;;5.35;;
35550;SDS011;21655;46.056;13.616;2023-06-05T03:02:08;10.35;;;6.00;;
35550;SDS011;21655;46.056;13.616;2023-06-05T03:04:34;11.50;;;6.85;;
35550;SDS011;21655;46.056;13.616;2023-06-05T03:06:59;9.90;;;5.80;;
35550;SDS011;21655;46.056;13.616;2023-06-05T03:09:31;12.70;;;5.93;;
35550;SDS011;21655;46.056;13.616;2023-06-05T03:11:57;11.65;;;6.05;;
35550;SDS011;21655;46.056;13.616;2023-06-05T03:14:23;13.88;;;6.85;;
35550;SDS011;21655;46.056;13.616;2023-06-05T03:16:49;13.68;;;6.88;;
35550;SDS011;21655;46.056;13.616;2023-06-05T03:19:14;11.25;;;6.75;;
35550;SDS011;21655;46.056;13.616;2023-06-05T03:21:40;10.20;;;6.45;;
35550;SDS011;21655;46.056;13.616;2023-06-05T03:24:09;10.07;;;5.72;;
35550;SDS011;21655;46.056;13.616;2023-06-05T03:26:39;12.40;;;6.32;;
35550;SDS011;21655;46.056;13.616;2023-06-05T03:29:05;13.75;;;6.28;;
35550;SDS011;21655;46.056;13.616;2023-06-05T03:31:32;12.00;;;6.97;;
35550;SDS011;21655;46.056;13.616;2023-06-05T03:33:57;11.30;;;6.22;;
35550;SDS011;21655;46.056;13.616;2023-06-05T03:36:27;12.02;;;6.45;;
35550;SDS011;21655;46.056;13.616;2023-06-05T03:38:53;12.75;;;5.43;;
35550;SDS011;21655;46.056;13.616;2023-06-05T03:41:19;8.63;;;4.28;;
35550;SDS011;21655;46.056;13.616;2023-06-05T03:43:46;11.32;;;7.30;;
35550;SDS011;21655;46.056;13.616;2023-06-05T03:46:12;16.30;;;7.75;;
35550;SDS011;21655;46.056;13.616;2023-06-05T03:48:43;13.00;;;7.93;;
35550;SDS011;21655;46.056;13.616;2023-06-05T03:51:09;13.38;;;7.90;;
35550;SDS011;21655;46.056;13.616;2023-06-05T03:53:34;12.75;;;7.78;;
35550;SDS011;21655;46.056;13.616;2023-06-05T03:56:05;13.18;;;7.40;;
35550;SDS011;21655;46.056;13.616;2023-06-05T03:58:31;10.73;;;6.75;;
35550;SDS011;21655;46.056;13.616;2023-06-05T04:00:56;13.05;;;7.22;;
35550;SDS011;21655;46.056;13.616;2023-06-05T04:03:22;13.25;;;6.80;;
35550;SDS011;21655;46.056;13.616;2023-06-05T04:05:48;10.07;;;6.45;;
35550;SDS011;21655;46.056;13.616;2023-06-05T04:08:13;10.95;;;6.70;;
35550;SDS011;21655;46.056;13.616;2023-06-05T04:10:39;14.43;;;7.20;;
35550;SDS011;21655;46.056;13.616;2023-06-05T04:13:05;10.98;;;6.90;;
35550;SDS011;21655;46.056;13.616;2023-06-05T04:15:31;10.98;;;6.63;;
35550;SDS011;21655;46.056;13.616;2023-06-05T04:17:57;8.52;;;6.13;;
35550;SDS011;21655;46.056;13.616;2023-06-05T04:20:22;11.90;;;6.43;;
35550;SDS011;21655;46.056;13.616;2023-06-05T04:22:48;9.57;;;6.50;;
35550;SDS011;21655;46.056;13.616;2023-06-05T04:25:13;9.95;;;5.97;;
35550;SDS011;21655;46.056;13.616;2023-06-05T04:27:40;9.98;;;5.78;;
35550;SDS011;21655;46.056;13.616;2023-06-05T04:30:10;9.38;;;5.70;;
35550;SDS011;21655;46.056;13.616;2023-06-05T04:32:37;9.88;;;5.72;;
35550;SDS011;21655;46.056;13.616;2023-06-05T04:35:04;9.95;;;5.70;;
35550;SDS011;21655;46.056;13.616;2023-06-05T04:37:30;9.25;;;5.53;;
35550;SDS011;21655;46.056;13.616;2023-06-05T04:39:56;6.88;;;4.70;;
35550;SDS011;21655;46.056;13.616;2023-06-05T04:42:24;8.60;;;4.97;;
35550;SDS011;21655;46.056;13.616;2023-06-05T04:44:56;8.75;;;5.00;;
35550;SDS011;21655;46.056;13.616;2023-06-05T04:47:23;9.45;;;5.05;;
35550;SDS011;21655;46.056;13.616;2023-06-05T04:49:48;8.77;;;4.63;;
35550;SDS011;21655;46.056;13.616;2023-06-05T04:52:17;7.95;;;4.60;;
35550;SDS011;21655;46.056;13.616;2023-06-05T04:54:43;6.47;;;3.95;;
35550;SDS011;21655;46.056;13.616;2023-06-05T04:57:09;8.93;;;4.03;;
35550;SDS011;21655;46.056;13.616;2023-06-05T04:59:35;7.13;;;4.28;;
35550;SDS011;21655;46.056;13.616;2023-06-05T05:02:01;6.63;;;3.58;;
35550;SDS011;21655;46.056;13.616;2023-06-05T05:04:27;5.32;;;3.58;;
35550;SDS011;21655;46.056;13.616;2023-06-05T05:06:52;7.97;;;3.17;;
35550;SDS011;21655;46.056;13.616;2023-06-05T05:09:18;4.60;;;3.28;;
35550;SDS011;21655;46.056;13.616;2023-06-05T05:11:43;5.47;;;4.22;;
35550;SDS011;21655;46.056;13.616;2023-06-05T05:14:09;11.93;;;5.07;;
35550;SDS011;21655;46.056;13.616;2023-06-05T05:16:34;7.35;;;4.97;;
35550;SDS011;21655;46.056;13.616;2023-06-05T05:19:00;8.70;;;5.18;;
35550;SDS011;21655;46.056;13.616;2023-06-05T05:21:25;11.43;;;5.75;;
35550;SDS011;21655;46.056;13.616;2023-06-05T05:23:51;10.45;;;5.50;;
35550;SDS011;21655;46.056;13.616;2023-06-05T05:26:16;11.05;;;4.93;;
35550;SDS011;21655;46.056;13.616;2023-06-05T05:28:42;7.93;;;5.43;;
35550;SDS011;21655;46.056;13.616;2023-06-05T05:31:07;8.38;;;5.07;;
35550;SDS011;21655;46.056;13.616;2023-06-05T05:33:33;8.25;;;4.95;;
35550;SDS011;21655;46.056;13.616;2023-06-05T05:35:58;10.88;;;5.25;;
35550;SDS011;21655;46.056;13.616;2023-06-05T05:38:24;10.75;;;5.35;;
35550;SDS011;21655;46.056;13.616;2023-06-05T05:40:49;7.50;;;4.85;;
35550;SDS011;21655;46.056;13.616;2023-06-05T05:43:15;10.13;;;5.40;;
35550;SDS011;21655;46.056;13.616;2023-06-05T05:45:41;7.05;;;4.78;;
35550;SDS011;21655;46.056;13.616;2023-06-05T05:48:08;9.18;;;4.68;;
35550;SDS011;21655;46.056;13.616;2023-06-05T05:50:34;9.82;;;4.78;;
35550;SDS011;21655;46.056;13.616;2023-06-05T05:53:00;10.45;;;4.95;;
35550;SDS011;21655;46.056;13.616;2023-06-05T05:55:25;10.55;;;4.75;;
35550;SDS011;21655;46.056;13.616;2023-06-05T05:57:51;9.18;;;4.32;;
35550;SDS011;21655;46.056;13.616;2023-06-05T06:00:16;13.32;;;5.00;;
35550;SDS011;21655;46.056;13.616;2023-06-05T06:02:42;7.65;;;4.00;;
35550;SDS011;21655;46.056;13.616;2023-06-05T06:05:08;5.07;;;4.10;;
35550;SDS011;21655;46.056;13.616;2023-06-05T06:07:35;7.88;;;4.18;;
35550;SDS011;21655;46.056;13.616;2023-06-05T06:10:01;9.05;;;4.13;;
35550;SDS011;21655;46.056;13.616;2023-06-05T06:12:27;5.07;;;3.10;;
35550;SDS011;21655;46.056;13.616;2023-06-05T06:14:54;9.02;;;5.35;;
35550;SDS011;21655;46.056;13.616;2023-06-05T06:17:21;7.97;;;4.88;;
35550;SDS011;21655;46.056;13.616;2023-06-05T06:19:46;4.03;;;2.67;;
35550;SDS011;21655;46.056;13.616;2023-06-05T06:22:13;4.40;;;2.67;;
35550;SDS011;21655;46.056;13.616;2023-06-05T06:24:40;3.67;;;2.42;;
35550;SDS011;21655;46.056;13.616;2023-06-05T06:27:07;4.03;;;2.20;;
35550;SDS011;21655;46.056;13.616;2023-06-05T06:29:45;3.35;;;2.08;;
35550;SDS011;21655;46.056;13.616;2023-06-05T06:32:12;3.70;;;2.33;;
35550;SDS011;21655;46.056;13.616;2023-06-05T06:34:38;3.63;;;2.28;;
35550;SDS011;21655;46.056;13.616;2023-06-05T06:37:03;4.60;;;2.10;;
35550;SDS011;21655;46.056;13.616;2023-06-05T06:39:29;3.70;;;2.30;;
35550;SDS011;21655;46.056;13.616;2023-06-05T06:41:54;3.72;;;2.10;;
35550;SDS011;21655;46.056;13.616;2023-06-05T06:44:21;3.45;;;2.20;;
35550;SDS011;21655;46.056;13.616;2023-06-05T06:46:47;3.95;;;2.50;;
35550;SDS011;21655;46.056;13.616;2023-06-05T06:49:12;4.00;;;2.42;;
35550;SDS011;21655;46.056;13.616;2023-06-05T06:51:38;5.18;;;2.45;;
35550;SDS011;21655;46.056;13.616;2023-06-05T06:54:03;3.58;;;2.35;;
35550;SDS011;21655;46.056;13.616;2023-06-05T06:56:29;4.35;;;2.13;;
35550;SDS011;21655;46.056;13.616;2023-06-05T06:58:54;4.97;;;2.58;;
35550;SDS011;21655;46.056;13.616;2023-06-05T07:01:20;5.65;;;2.53;;
35550;SDS011;21655;46.056;13.616;2023-06-05T07:03:46;4.60;;;2.55;;
35550;SDS011;21655;46.056;13.616;2023-06-05T07:06:11;3.92;;;2.70;;
35550;SDS011;21655;46.056;13.616;2023-06-05T07:08:38;4.72;;;2.70;;
35550;SDS011;21655;46.056;13.616;2023-06-05T07:11:03;8.32;;;2.88;;
35550;SDS011;21655;46.056;13.616;2023-06-05T07:13:29;3.40;;;2.35;;
35550;SDS011;21655;46.056;13.616;2023-06-05T07:15:54;4.53;;;2.80;;
35550;SDS011;21655;46.056;13.616;2023-06-05T07:18:20;4.05;;;2.85;;
35550;SDS011;21655;46.056;13.616;2023-06-05T07:20:46;5.47;;;2.47;;
35550;SDS011;21655;46.056;13.616;2023-06-05T07:23:12;3.40;;;2.40;;
35550;SDS011;21655;46.056;13.616;2023-06-05T07:25:38;4.88;;;2.80;;
35550;SDS011;21655;46.056;13.616;2023-06-05T07:28:08;5.38;;;2.92;;
35550;SDS011;21655;46.056;13.616;2023-06-05T07:30:36;5.10;;;2.92;;
35550;SDS011;21655;46.056;13.616;2023-06-05T07:33:02;5.45;;;2.97;;
35550;SDS011;21655;46.056;13.616;2023-06-05T07:35:28;5.93;;;2.72;;
35550;SDS011;21655;46.056;13.616;2023-06-05T07:37:54;8.82;;;3.20;;
35550;SDS011;21655;46.056;13.616;2023-06-05T07:40:19;5.90;;;3.20;;
35550;SDS011;21655;46.056;13.616;2023-06-05T07:42:45;6.97;;;2.63;;
35550;SDS011;21655;46.056;13.616;2023-06-05T07:45:11;4.18;;;2.58;;
35550;SDS011;21655;46.056;13.616;2023-06-05T07:47:36;4.10;;;2.67;;
35550;SDS011;21655;46.056;13.616;2023-06-05T07:50:02;6.85;;;2.85;;
35550;SDS011;21655;46.056;13.616;2023-06-05T07:52:31;4.00;;;2.40;;
35550;SDS011;21655;46.056;13.616;2023-06-05T07:54:57;4.30;;;2.10;;
35550;SDS011;21655;46.056;13.616;2023-06-05T07:57:22;4.03;;;2.17;;
35550;SDS011;21655;46.056;13.616;2023-06-05T07:59:49;5.68;;;2.30;;
35550;SDS011;21655;46.056;13.616;2023-06-05T08:02:15;4.13;;;2.55;;
35550;SDS011;21655;46.056;13.616;2023-06-05T08:04:44;5.50;;;2.40;;
35550;SDS011;21655;46.056;13.616;2023-06-05T08:07:09;7.28;;;2.17;;
35550;SDS011;21655;46.056;13.616;2023-06-05T08:09:35;3.30;;;2.17;;
35550;SDS011;21655;46.056;13.616;2023-06-05T08:12:02;3.72;;;2.42;;
35550;SDS011;21655;46.056;13.616;2023-06-05T08:14:31;3.10;;;1.85;;
35550;SDS011;21655;46.056;13.616;2023-06-05T08:16:57;3.50;;;2.03;;
35550;SDS011;21655;46.056;13.616;2023-06-05T08:19:22;2.65;;;1.60;;
35550;SDS011;21655;46.056;13.616;2023-06-05T08:21:51;3.35;;;1.80;;
35550;SDS011;21655;46.056;13.616;2023-06-05T08:24:19;2.80;;;1.95;;
35550;SDS011;21655;46.056;13.616;2023-06-05T08:26:45;3.38;;;2.10;;
35550;SDS011;21655;46.056;13.616;2023-06-05T08:29:10;3.85;;;1.90;;
35550;SDS011;21655;46.056;13.616;2023-06-05T08:31:37;2.88;;;1.98;;
35550;SDS011;21655;46.056;13.616;2023-06-05T08:34:04;4.38;;;1.92;;
35550;SDS011;21655;46.056;13.616;2023-06-05T08:36:30;4.10;;;2.08;;
35550;SDS011;21655;46.056;13.616;2023-06-05T08:38:57;4.90;;;2.03;;
35550;SDS011;21655;46.056;13.616;2023-06-05T08:41:23;3.78;;;2.00;;
35550;SDS011;21655;46.056;13.616;2023-06-05T08:43:50;3.33;;;1.88;;
35550;SDS011;21655;46.056;13.616;2023-06-05T08:46:16;5.10;;;2.10;;
35550;SDS011;21655;46.056;13.616;2023-06-05T08:48:43;5.10;;;2.00;;
35550;SDS011;21655;46.056;13.616;2023-06-05T08:51:10;3.35;;;2.10;;
35550;SDS011;21655;46.056;13.616;2023-06-05T08:53:37;4.05;;;2.00;;
35550;SDS011;21655;46.056;13.616;2023-06-05T08:56:04;2.60;;;1.92;;
35550;SDS011;21655;46.056;13.616;2023-06-05T08:58:31;3.75;;;1.90;;
35550;SDS011;21655;46.056;13.616;2023-06-05T09:00:58;5.03;;;1.67;;
35550;SDS011;21655;46.056;13.616;2023-06-05T09:03:24;5.50;;;2.20;;
35550;SDS011;21655;46.056;13.616;2023-06-05T09:05:51;2.78;;;1.95;;
35550;SDS011;21655;46.056;13.616;2023-06-05T09:08:29;3.67;;;1.98;;
35550;SDS011;21655;46.056;13.616;2023-06-05T09:13:57;6.22;;;2.08;;
35550;SDS011;21655;46.056;13.616;2023-06-05T09:16:34;3.70;;;2.30;;
35550;SDS011;21655;46.056;13.616;2023-06-05T09:19:04;3.47;;;1.67;;
35550;SDS011;21655;46.056;13.616;2023-06-05T09:21:30;4.90;;;2.10;;
35550;SDS011;21655;46.056;13.616;2023-06-05T09:29:12;3.92;;;2.40;;
35550;SDS011;21655;46.056;13.616;2023-06-05T09:31:43;4.88;;;2.50;;
35550;SDS011;21655;46.056;13.616;2023-06-05T09:34:08;3.20;;;1.90;;
35550;SDS011;21655;46.056;13.616;2023-06-05T09:36:36;3.13;;;2.08;;
35550;SDS011;21655;46.056;13.616;2023-06-05T09:39:16;4.15;;;2.13;;
35550;SDS011;21655;46.056;13.616;2023-06-05T09:41:42;5.28;;;2.42;;
35550;SDS011;21655;46.056;13.616;2023-06-05T09:44:09;3.85;;;2.40;;
35550;SDS011;21655;46.056;13.616;2023-06-05T09:46:42;4.13;;;2.53;;
35550;SDS011;21655;46.056;13.616;2023-06-05T09:49:24;6.10;;;2.67;;
35550;SDS011;21655;46.056;13.616;2023-06-05T09:51:52;3.50;;;2.40;;
35550;SDS011;21655;46.056;13.616;2023-06-05T09:54:17;5.10;;;2.45;;
35550;SDS011;21655;46.056;13.616;2023-06-05T09:56:49;5.93;;;2.53;;
35550;SDS011;21655;46.056;13.616;2023-06-05T09:59:23;5.85;;;2.95;;
35550;SDS011;21655;46.056;13.616;2023-06-05T10:01:53;7.05;;;2.90;;
35550;SDS011;21655;46.056;13.616;2023-06-05T10:04:23;6.57;;;3.25;;
35550;SDS011;21655;46.056;13.616;2023-06-05T10:06:51;4.82;;;2.72;;
35550;SDS011;21655;46.056;13.616;2023-06-05T10:09:19;5.00;;;2.80;;
35550;SDS011;21655;46.056;13.616;2023-06-05T10:11:48;6.05;;;2.65;;
35550;SDS011;21655;46.056;13.616;2023-06-05T10:14:15;9.60;;;2.67;;
35550;SDS011;21655;46.056;13.616;2023-06-05T10:16:41;10.23;;;3.10;;
35550;SDS011;21655;46.056;13.616;2023-06-05T10:19:08;7.68;;;3.17;;
35550;SDS011;21655;46.056;13.616;2023-06-05T10:21:34;3.95;;;2.65;;
35550;SDS011;21655;46.056;13.616;2023-06-05T10:24:08;6.75;;;3.08;;
35550;SDS011;21655;46.056;13.616;2023-06-05T10:35:06;6.28;;;2.63;;
35550;SDS011;21655;46.056;13.616;2023-06-05T10:40:43;7.05;;;2.88;;
35550;SDS011;21655;46.056;13.616;2023-06-05T10:43:32;5.60;;;2.78;;
35550;SDS011;21655;46.056;13.616;2023-06-05T10:46:01;4.45;;;2.47;;
35550;SDS011;21655;46.056;13.616;2023-06-05T10:59:18;5.65;;;2.42;;
35550;SDS011;21655;46.056;13.616;2023-06-05T11:07:24;8.70;;;2.45;;
35550;SDS011;21655;46.056;13.616;2023-06-05T11:10:13;4.50;;;2.38;;
35550;SDS011;21655;46.056;13.616;2023-06-05T11:15:37;6.30;;;2.60;;
35550;SDS011;21655;46.056;13.616;2023-06-05T11:21:01;5.22;;;2.63;;
35550;SDS011;21655;46.056;13.616;2023-06-05T11:23:27;4.40;;;2.47;;
35550;SDS011;21655;46.056;13.616;2023-06-05T11:25:55;5.50;;;2.45;;
35550;SDS011;21655;46.056;13.616;2023-06-05T11:28:43;5.78;;;3.03;;
35550;SDS011;21655;46.056;13.616;2023-06-05T11:33:34;6.40;;;2.70;;
35550;SDS011;21655;46.056;13.616;2023-06-05T11:36:01;4.63;;;2.30;;
35550;SDS011;21655;46.056;13.616;2023-06-05T11:38:29;6.07;;;2.55;;
35550;SDS011;21655;46.056;13.616;2023-06-05T11:40:55;6.07;;;2.60;;
35550;SDS011;21655;46.056;13.616;2023-06-05T11:43:21;8.02;;;2.70;;
35550;SDS011;21655;46.056;13.616;2023-06-05T11:45:54;5.00;;;2.78;;
35550;SDS011;21655;46.056;13.616;2023-06-05T11:48:21;4.53;;;2.70;;
35550;SDS011;21655;46.056;13.616;2023-06-05T11:50:58;5.95;;;2.53;;
35550;SDS011;21655;46.056;13.616;2023-06-05T11:53:26;4.90;;;3.00;;
35550;SDS011;21655;46.056;13.616;2023-06-05T11:55:53;4.80;;;2.80;;
35550;SDS011;21655;46.056;13.616;2023-06-05T11:58:30;4.28;;;2.35;;
35550;SDS011;21655;46.056;13.616;2023-06-05T12:03:31;5.38;;;2.40;;
35550;SDS011;21655;46.056;13.616;2023-06-05T12:06:00;4.97;;;2.45;;
35550;SDS011;21655;46.056;13.616;2023-06-05T12:08:30;3.60;;;2.30;;
35550;SDS011;21655;46.056;13.616;2023-06-05T12:10:58;6.50;;;2.65;;
35550;SDS011;21655;46.056;13.616;2023-06-05T12:13:44;4.40;;;2.33;;
35550;SDS011;21655;46.056;13.616;2023-06-05T12:16:15;4.18;;;2.25;;
35550;SDS011;21655;46.056;13.616;2023-06-05T12:18:45;5.40;;;2.30;;
35550;SDS011;21655;46.056;13.616;2023-06-05T12:21:18;3.45;;;2.40;;
35550;SDS011;21655;46.056;13.616;2023-06-05T12:23:45;6.25;;;2.55;;
35550;SDS011;21655;46.056;13.616;2023-06-05T12:26:10;4.55;;;2.25;;
35550;SDS011;21655;46.056;13.616;2023-06-05T12:28:36;5.90;;;2.50;;
35550;SDS011;21655;46.056;13.616;2023-06-05T12:31:02;3.83;;;2.30;;
35550;SDS011;21655;46.056;13.616;2023-06-05T12:33:28;5.53;;;2.58;;
35550;SDS011;21655;46.056;13.616;2023-06-05T12:38:36;4.38;;;2.10;;
35550;SDS011;21655;46.056;13.616;2023-06-05T12:41:02;3.75;;;2.03;;
35550;SDS011;21655;46.056;13.616;2023-06-05T12:43:28;4.93;;;2.40;;
35550;SDS011;21655;46.056;13.616;2023-06-05T12:45:53;4.57;;;2.80;;
35550;SDS011;21655;46.056;13.616;2023-06-05T12:48:20;4.82;;;2.10;;
35550;SDS011;21655;46.056;13.616;2023-06-05T12:50:47;3.47;;;1.80;;
35550;SDS011;21655;46.056;13.616;2023-06-05T12:53:14;5.35;;;2.20;;
35550;SDS011;21655;46.056;13.616;2023-06-05T12:55:39;5.38;;;2.28;;
35550;SDS011;21655;46.056;13.616;2023-06-05T12:58:06;5.55;;;1.88;;
35550;SDS011;21655;46.056;13.616;2023-06-05T13:00:31;3.20;;;1.90;;
35550;SDS011;21655;46.056;13.616;2023-06-05T13:02:57;4.25;;;2.20;;
35550;SDS011;21655;46.056;13.616;2023-06-05T13:05:22;2.92;;;1.65;;
35550;SDS011;21655;46.056;13.616;2023-06-05T13:07:48;6.35;;;2.40;;
35550;SDS011;21655;46.056;13.616;2023-06-05T13:10:16;5.20;;;2.15;;
35550;SDS011;21655;46.056;13.616;2023-06-05T13:12:42;6.22;;;2.58;;
35550;SDS011;21655;46.056;13.616;2023-06-05T13:15:08;4.53;;;1.60;;
35550;SDS011;21655;46.056;13.616;2023-06-05T13:17:34;4.90;;;1.52;;
35550;SDS011;21655;46.056;13.616;2023-06-05T13:20:02;2.45;;;1.30;;
35550;SDS011;21655;46.056;13.616;2023-06-05T13:22:32;2.65;;;1.60;;
35550;SDS011;21655;46.056;13.616;2023-06-05T13:24:57;5.78;;;1.65;;
35550;SDS011;21655;46.056;13.616;2023-06-05T13:27:23;2.45;;;1.25;;
35550;SDS011;21655;46.056;13.616;2023-06-05T13:29:48;3.15;;;1.33;;
35550;SDS011;21655;46.056;13.616;2023-06-05T13:32:14;2.22;;;1.30;;
35550;SDS011;21655;46.056;13.616;2023-06-05T13:34:39;2.17;;;1.60;;
35550;SDS011;21655;46.056;13.616;2023-06-05T13:37:05;4.03;;;1.73;;
35550;SDS011;21655;46.056;13.616;2023-06-05T13:39:31;3.55;;;1.65;;
35550;SDS011;21655;46.056;13.616;2023-06-05T13:41:56;4.18;;;1.88;;
35550;SDS011;21655;46.056;13.616;2023-06-05T13:44:22;4.88;;;1.55;;
35550;SDS011;21655;46.056;13.616;2023-06-05T13:46:47;4.75;;;1.90;;
35550;SDS011;21655;46.056;13.616;2023-06-05T13:49:12;4.20;;;1.60;;
35550;SDS011;21655;46.056;13.616;2023-06-05T13:51:38;3.42;;;1.75;;
35550;SDS011;21655;46.056;13.616;2023-06-05T13:54:04;3.13;;;1.60;;
35550;SDS011;21655;46.056;13.616;2023-06-05T13:56:32;4.43;;;1.70;;
35550;SDS011;21655;46.056;13.616;2023-06-05T13:58:57;9.38;;;1.77;;
35550;SDS011;21655;46.056;13.616;2023-06-05T14:01:23;6.75;;;1.92;;
35550;SDS011;21655;46.056;13.616;2023-06-05T14:03:49;7.70;;;2.15;;
35550;SDS011;21655;46.056;13.616;2023-06-05T14:06:18;5.68;;;1.65;;
35550;SDS011;21655;46.056;13.616;2023-06-05T14:08:44;4.43;;;2.00;;
35550;SDS011;21655;46.056;13.616;2023-06-05T14:11:10;6.20;;;1.77;;
35550;SDS011;21655;46.056;13.616;2023-06-05T14:13:35;4.55;;;1.73;;
35550;SDS011;21655;46.056;13.616;2023-06-05T14:16:01;3.70;;;1.75;;
35550;SDS011;21655;46.056;13.616;2023-06-05T14:18:28;3.47;;;1.67;;
35550;SDS011;21655;46.056;13.616;2023-06-05T14:20:54;7.35;;;2.22;;
35550;SDS011;21655;46.056;13.616;2023-06-05T14:23:20;4.15;;;1.80;;
35550;SDS011;21655;46.056;13.616;2023-06-05T14:25:48;3.60;;;1.80;;
35550;SDS011;21655;46.056;13.616;2023-06-05T14:28:14;9.00;;;2.25;;
35550;SDS011;21655;46.056;13.616;2023-06-05T14:30:40;5.85;;;2.20;;
35550;SDS011;21655;46.056;13.616;2023-06-05T14:33:05;9.02;;;2.35;;
35550;SDS011;21655;46.056;13.616;2023-06-05T14:35:31;4.97;;;1.80;;
35550;SDS011;21655;46.056;13.616;2023-06-05T14:37:56;4.55;;;1.90;;
35550;SDS011;21655;46.056;13.616;2023-06-05T14:40:22;4.70;;;2.13;;
35550;SDS011;21655;46.056;13.616;2023-06-05T14:42:49;4.38;;;1.90;;
35550;SDS011;21655;46.056;13.616;2023-06-05T14:45:15;4.82;;;2.05;;
35550;SDS011;21655;46.056;13.616;2023-06-05T14:47:40;4.03;;;2.25;;
35550;SDS011;21655;46.056;13.616;2023-06-05T14:50:06;3.55;;;2.03;;
35550;SDS011;21655;46.056;13.616;2023-06-05T14:52:32;5.10;;;2.10;;
35550;SDS011;21655;46.056;13.616;2023-06-05T14:54:58;10.07;;;2.70;;
35550;SDS011;21655;46.056;13.616;2023-06-05T14:57:23;6.68;;;2.70;;
35550;SDS011;21655;46.056;13.616;2023-06-05T14:59:49;7.00;;;2.10;;
35550;SDS011;21655;46.056;13.616;2023-06-05T15:02:15;6.80;;;2.33;;
35550;SDS011;21655;46.056;13.616;2023-06-05T15:04:40;5.82;;;2.38;;
35550;SDS011;21655;46.056;13.616;2023-06-05T15:07:06;4.97;;;2.50;;
35550;SDS011;21655;46.056;13.616;2023-06-05T15:09:32;5.20;;;2.10;;
35550;SDS011;21655;46.056;13.616;2023-06-05T15:11:57;5.80;;;2.30;;
35550;SDS011;21655;46.056;13.616;2023-06-05T15:14:24;3.95;;;2.30;;
35550;SDS011;21655;46.056;13.616;2023-06-05T15:16:50;4.55;;;2.30;;
35550;SDS011;21655;46.056;13.616;2023-06-05T15:19:15;3.85;;;1.95;;
35550;SDS011;21655;46.056;13.616;2023-06-05T15:21:41;5.57;;;2.65;;